Cincinnati, OH

6:34 AM EDT on July 29, 2016 (GMT -0400)
Newport Aquarium | | Change Station
Active Advisory: Special Statement Active Notice: Record Report, Local Storm Report

Elev 499 ft 39.09 °N, 84.50 °W | Updated 37 seconds ago

Overcast
Overcast
75.4 °F
Feels Like 75 °F
N
0.0
Wind Variable Wind from SE
Gusts 5.0 mph

Today
High -- | Low -- °F
--% Chance of Precip.
Yesterday
High -- | Low -- °F
Precip. -- in
Pressure 29.91 in
Visibility 6.0 miles
Clouds Overcast 1100 ft
Heat Index 75 °F
Dew Point 72 °F
Humidity 88%
Rainfall 0.00 in
Snow Depth Not available.
6:36 AM 8:52 PM
Waning Crescent, 23% visible
METAR KLUK 290953Z AUTO 00000KT 6SM BR OVC011 23/23 A2992 RMK AO2 SLP127 T02330233
Pressure 29.91 in
Visibility 6.0 miles
Clouds Overcast 1100 ft
Heat Index 75 °F
Dew Point 72 °F
Humidity 88%
Rainfall 0.00 in
Snow Depth Not available.
6:36 AM 8:52 PM
Waning Crescent, 23% visible
METAR KLUK 290953Z AUTO 00000KT 6SM BR OVC011 23/23 A2992 RMK AO2 SLP127 T02330233

10-Day Weather Forecast

Almanac

Astronomy

Jul. 29, 2016 Rise Set
Actual Time
Civil Twilight
Nautical Twilight
Astronomical Twilight
Moon
Length of Visible Light
Length of Day
Tomorrow will be .
, % of the Moon is Illuminated

Today's Extremes

State Highs State Lows

Community

WunderPhotos

Upload Photos

1,928,311 photos uploaded!

WunderBlog® & News

Nearby

Air Quality

  Air Quality AQ Index Pollutant
Not available.

Snow Depth

Station Depth Elevation

Earthquake Activity

City Distance Mag. Time & Date
Minimum magnitude displayed is 2.5.

Coastal Water Temperatures

Place Temperature

Stations

Nearby Weather Stations

Station Location Temp. Windchill Dew Point Humidity Wind Precip. Elev Updated Type
                   

Watches & Warnings

Special Statement
Issued: 4:48 AM EDT Jul. 29, 2016 – National Weather Service

... Patchy dense fog expected this morning...

Areas of fog will persist through mid morning. Some of the fog
will be locally dense... reducing visibilities to below a quarter
of a mile at times.

If traveling this morning, slow down and use extra caution if you
encounter reduced visibilities.



448 am EDT Fri Jul 29 2016

... Patchy dense fog expected this morning...

Areas of fog will persist through mid morning. Some of the fog
will be locally dense... reducing visibilities to below a quarter
of a mile at times.

If traveling this morning, slow down and use extra caution if you
encounter reduced visibilities.


448 am EDT Fri Jul 29 2016

... Patchy dense fog expected this morning...

Areas of fog will persist through mid morning. Some of the fog
will be locally dense... reducing visibilities to below a quarter
of a mile at times.

If traveling this morning, slow down and use extra caution if you
encounter reduced visibilities.